createdAt,value
2024-02-09T00:00:10.845Z,983.09
2024-02-09T00:01:11.006Z,983.09
2024-02-09T00:02:10.789Z,983.08
2024-02-09T00:03:10.966Z,983.13
2024-02-09T00:04:10.858Z,983.06
2024-02-09T00:05:10.783Z,983.07
2024-02-09T00:06:10.799Z,983.05
2024-02-09T00:07:10.934Z,983.03
2024-02-09T00:08:11.014Z,983.06
2024-02-09T00:09:10.888Z,983.01
2024-02-09T00:10:10.703Z,983.02
2024-02-09T00:11:10.645Z,982.98
2024-02-09T00:12:10.644Z,983.00
2024-02-09T00:13:10.670Z,982.99
2024-02-09T00:14:10.681Z,983.01
2024-02-09T00:15:10.634Z,982.96
2024-02-09T00:16:10.657Z,982.97
2024-02-09T00:17:10.591Z,982.86
2024-02-09T00:18:10.640Z,982.89
2024-02-09T00:19:10.694Z,982.91
2024-02-09T00:20:10.727Z,982.87
2024-02-09T00:21:10.549Z,982.83
2024-02-09T00:22:10.624Z,982.80
2024-02-09T00:23:10.542Z,982.83
2024-02-09T00:24:10.546Z,982.85
2024-02-09T00:25:10.532Z,982.81
2024-02-09T00:26:10.599Z,982.80
2024-02-09T00:27:10.488Z,982.81
2024-02-09T00:28:10.463Z,982.78
2024-02-09T00:29:10.524Z,982.78
2024-02-09T00:30:10.542Z,982.77
2024-02-09T00:31:10.445Z,982.80
2024-02-09T00:32:10.424Z,982.72
2024-02-09T00:33:10.584Z,982.71
2024-02-09T00:34:10.658Z,982.69
2024-02-09T00:35:10.467Z,982.67
2024-02-09T00:36:10.387Z,982.63
2024-02-09T00:37:10.439Z,982.65
2024-02-09T00:38:10.360Z,982.60
2024-02-09T00:39:10.383Z,982.55
2024-02-09T00:40:10.464Z,982.54
2024-02-09T00:41:10.343Z,982.56
2024-02-09T00:42:10.313Z,982.56
2024-02-09T00:43:10.414Z,982.54
2024-02-09T00:44:10.288Z,982.54
2024-02-09T00:45:10.361Z,982.48
2024-02-09T00:46:10.286Z,982.46
2024-02-09T00:47:10.310Z,982.51
2024-02-09T00:48:10.345Z,982.47
2024-02-09T00:49:10.283Z,982.48
2024-02-09T00:50:10.353Z,982.44
2024-02-09T00:51:10.212Z,982.43
2024-02-09T00:52:10.231Z,982.37
2024-02-09T00:53:10.304Z,982.42
2024-02-09T00:54:10.184Z,982.39
2024-02-09T00:55:10.195Z,982.44
2024-02-09T00:56:10.163Z,982.39
2024-02-09T00:57:10.263Z,982.32
2024-02-09T00:58:10.161Z,982.33
2024-02-09T00:59:10.240Z,982.27
2024-02-09T01:00:10.131Z,982.32
2024-02-09T01:01:10.260Z,982.31
2024-02-09T01:02:10.305Z,982.31
2024-02-09T01:03:10.079Z,982.31
2024-02-09T01:04:10.088Z,982.28
2024-02-09T01:05:10.177Z,982.20
2024-02-09T01:06:10.192Z,982.20
2024-02-09T01:07:10.157Z,982.19
2024-02-09T01:08:10.027Z,982.15
2024-02-09T01:09:10.037Z,982.18
2024-02-09T01:10:10.175Z,982.14
2024-02-09T01:11:10.000Z,982.14
2024-02-09T01:12:10.073Z,982.12
2024-02-09T01:13:10.072Z,982.12
2024-02-09T01:14:09.975Z,982.17
2024-02-09T01:15:09.964Z,982.13
2024-02-09T01:16:09.993Z,982.12
2024-02-09T01:17:09.929Z,982.16
2024-02-09T01:18:10.060Z,982.11
2024-02-09T01:19:10.213Z,982.09
2024-02-09T01:20:10.055Z,982.18
2024-02-09T01:21:09.961Z,982.03
2024-02-09T01:22:09.896Z,982.08
2024-02-09T01:23:09.971Z,982.06
2024-02-09T01:24:09.865Z,982.08
2024-02-09T01:25:09.908Z,982.02
2024-02-09T01:26:09.833Z,982.06
2024-02-09T01:27:09.901Z,982.05
2024-02-09T01:28:09.934Z,982.04
2024-02-09T01:29:09.885Z,981.95
2024-02-09T01:30:09.872Z,981.95
2024-02-09T01:31:09.802Z,981.93
2024-02-09T01:32:09.774Z,981.94
2024-02-09T01:33:09.769Z,981.96
2024-02-09T01:34:09.815Z,981.89
2024-02-09T01:35:09.838Z,981.90
2024-02-09T01:36:09.732Z,981.86
2024-02-09T01:37:09.812Z,981.83
2024-02-09T01:38:09.741Z,981.79
2024-02-09T01:39:09.696Z,981.83
2024-02-09T01:40:09.738Z,981.86
2024-02-09T01:41:09.676Z,981.84
2024-02-09T01:42:09.825Z,981.84
2024-02-09T01:43:09.704Z,981.82
2024-02-09T01:44:09.688Z,981.78
2024-02-09T01:45:09.636Z,981.78
2024-02-09T01:46:09.692Z,981.73
2024-02-09T01:47:09.615Z,981.76
2024-02-09T01:48:09.808Z,981.67
2024-02-09T01:49:09.760Z,981.65
2024-02-09T01:50:09.770Z,981.66
2024-02-09T01:51:09.627Z,981.64
2024-02-09T01:52:09.638Z,981.61
2024-02-09T01:53:09.647Z,981.56
2024-02-09T01:54:09.548Z,981.53
2024-02-09T01:55:09.562Z,981.49
2024-02-09T01:56:09.573Z,981.48
2024-02-09T01:57:09.514Z,981.49
2024-02-09T01:58:09.557Z,981.50
2024-02-09T01:59:09.497Z,981.49
2024-02-09T02:00:09.499Z,981.48
2024-02-09T02:01:09.526Z,981.40
2024-02-09T02:02:09.581Z,981.36
2024-02-09T02:03:09.515Z,981.33
2024-02-09T02:04:09.502Z,981.28
2024-02-09T02:05:09.526Z,981.28
2024-02-09T02:06:09.458Z,981.22
2024-02-09T02:07:09.467Z,981.23
2024-02-09T02:08:09.469Z,981.25
2024-02-09T02:09:09.380Z,981.21
2024-02-09T02:10:09.414Z,981.23
2024-02-09T02:11:09.369Z,981.19
2024-02-09T02:12:09.424Z,981.16
2024-02-09T02:13:09.367Z,981.15
2024-02-09T02:14:09.338Z,981.11
2024-02-09T02:15:09.319Z,981.08
2024-02-09T02:16:09.331Z,981.10
2024-02-09T02:17:09.300Z,981.05
2024-02-09T02:18:09.463Z,981.00
2024-02-09T02:19:09.305Z,981.01
2024-02-09T02:20:09.387Z,980.99
2024-02-09T02:21:09.276Z,980.95
2024-02-09T02:22:09.310Z,980.97
2024-02-09T02:23:09.222Z,980.94
2024-02-09T02:24:09.236Z,980.93
2024-02-09T02:25:09.245Z,981.00
2024-02-09T02:26:09.197Z,980.96
2024-02-09T02:27:09.182Z,980.95
2024-02-09T02:28:09.222Z,980.96
2024-02-09T02:29:09.166Z,980.94
2024-02-09T02:30:09.199Z,980.97
2024-02-09T02:31:09.186Z,980.93
2024-02-09T02:32:09.255Z,980.92
2024-02-09T02:33:09.242Z,980.90
2024-02-09T02:34:09.254Z,980.85
2024-02-09T02:35:09.224Z,980.80
2024-02-09T02:36:09.092Z,980.77
2024-02-09T02:37:09.128Z,980.79
2024-02-09T02:38:09.189Z,980.73
2024-02-09T02:39:09.062Z,980.72
2024-02-09T02:40:09.160Z,980.67
2024-02-09T02:41:09.131Z,980.72
2024-02-09T02:42:09.042Z,980.72
2024-02-09T02:43:09.056Z,980.65
2024-02-09T02:44:09.008Z,980.70
2024-02-09T02:45:09.047Z,980.66
2024-02-09T02:46:08.994Z,980.68
2024-02-09T02:47:09.041Z,980.68
2024-02-09T02:48:09.020Z,980.64
2024-02-09T02:49:09.178Z,980.60
2024-02-09T02:50:09.115Z,980.62
2024-02-09T02:51:08.935Z,980.61
2024-02-09T02:52:08.955Z,980.57
2024-02-09T02:53:09.003Z,980.61
2024-02-09T02:54:08.900Z,980.55
2024-02-09T02:55:08.977Z,980.61
2024-02-09T02:56:08.889Z,980.53
2024-02-09T02:57:08.869Z,980.53
2024-02-09T02:58:08.889Z,980.53
2024-02-09T02:59:08.845Z,980.48
2024-02-09T03:00:08.867Z,980.46
2024-02-09T03:01:09.015Z,980.49
2024-02-09T03:02:08.886Z,980.44
2024-02-09T03:03:08.810Z,980.50
2024-02-09T03:04:08.851Z,980.43
2024-02-09T03:05:08.870Z,980.45
2024-02-09T03:06:08.890Z,980.44
2024-02-09T03:08:43.918Z,980.40
2024-02-09T03:09:09.868Z,980.28
2024-02-09T03:10:08.768Z,980.30
2024-02-09T03:11:08.786Z,980.30
2024-02-09T03:12:08.804Z,980.32
2024-02-09T03:13:08.839Z,980.26
2024-02-09T03:14:08.833Z,980.25
2024-02-09T03:15:08.853Z,980.23
2024-02-09T03:16:08.776Z,980.21
2024-02-09T03:17:08.848Z,980.20
2024-02-09T03:18:08.804Z,980.18
2024-02-09T03:19:08.800Z,980.20
2024-02-09T03:20:08.714Z,980.18
2024-02-09T03:21:08.609Z,980.19
2024-02-09T03:22:08.718Z,980.19
2024-02-09T03:23:08.648Z,980.16
2024-02-09T03:24:08.638Z,980.17
2024-02-09T03:25:08.604Z,980.15
2024-02-09T03:26:08.608Z,980.17
2024-02-09T03:27:08.565Z,980.15
2024-02-09T03:28:08.597Z,980.14
2024-02-09T03:29:08.623Z,980.16
2024-02-09T03:30:08.557Z,980.18
2024-02-09T03:31:08.686Z,980.13
2024-02-09T03:32:08.651Z,980.12
2024-02-09T03:33:08.728Z,980.14
2024-02-09T03:34:08.741Z,980.13
2024-02-09T03:35:08.576Z,980.11
2024-02-09T03:36:08.443Z,980.05
2024-02-09T03:37:08.581Z,980.08
2024-02-09T03:38:08.518Z,980.04
2024-02-09T03:39:08.419Z,980.00
2024-02-09T03:40:08.529Z,980.05
2024-02-09T03:41:08.527Z,980.02
2024-02-09T03:42:08.554Z,979.99
2024-02-09T03:43:08.500Z,979.99
2024-02-09T03:44:08.405Z,979.99
2024-02-09T03:45:08.376Z,979.98
2024-02-09T03:46:08.397Z,980.00
2024-02-09T03:47:08.368Z,980.00
2024-02-09T03:48:08.493Z,980.00
2024-02-09T03:49:08.422Z,979.99
2024-02-09T03:50:08.360Z,979.99
2024-02-09T03:51:08.301Z,979.96
2024-02-09T03:52:08.299Z,980.00
2024-02-09T03:53:10.403Z,979.95
2024-02-09T03:54:08.321Z,979.93
2024-02-09T03:55:08.290Z,979.95
2024-02-09T03:56:08.297Z,979.96
2024-02-09T03:57:08.252Z,979.89
2024-02-09T03:58:08.243Z,979.95
2024-02-09T03:59:08.216Z,979.84
2024-02-09T04:00:08.190Z,979.89
2024-02-09T04:01:08.287Z,979.88
2024-02-09T04:02:08.317Z,979.92
2024-02-09T04:03:08.247Z,979.86
2024-02-09T04:04:08.239Z,979.89
2024-02-09T04:05:08.250Z,979.81
2024-02-09T04:06:08.175Z,979.82
2024-02-09T04:07:08.156Z,979.81
2024-02-09T04:08:08.092Z,979.81
2024-02-09T04:09:30.803Z,979.80
2024-02-09T04:11:08.235Z,979.81
2024-02-09T04:12:08.051Z,979.75
2024-02-09T04:13:08.141Z,979.77
2024-02-09T04:14:08.044Z,979.77
2024-02-09T04:15:08.033Z,979.76
2024-02-09T04:16:08.066Z,979.75
2024-02-09T04:17:08.117Z,979.80
2024-02-09T04:18:08.117Z,979.77
2024-02-09T04:19:08.059Z,979.81
2024-02-09T04:20:07.970Z,979.79
2024-02-09T04:21:07.981Z,979.82
2024-02-09T04:22:07.991Z,979.84
2024-02-09T04:23:07.935Z,979.78
2024-02-09T04:24:07.942Z,979.82
2024-02-09T04:25:07.959Z,979.76
2024-02-09T04:26:07.915Z,979.77
2024-02-09T04:27:07.915Z,979.79
2024-02-09T04:28:07.988Z,979.82
2024-02-09T04:29:07.949Z,979.77
2024-02-09T04:30:08.010Z,979.80
2024-02-09T04:31:08.032Z,979.78
2024-02-09T04:32:07.931Z,979.77
2024-02-09T04:33:07.986Z,979.76
2024-02-09T04:34:07.958Z,979.74
2024-02-09T04:35:07.935Z,979.76
2024-02-09T04:36:07.867Z,979.66
2024-02-09T04:37:07.924Z,979.67
2024-02-09T04:38:08.027Z,979.73
2024-02-09T04:39:07.780Z,979.69
2024-02-09T04:40:07.862Z,979.71
2024-02-09T04:41:07.896Z,979.68
2024-02-09T04:42:07.741Z,979.66
2024-02-09T04:43:07.993Z,979.65
2024-02-09T04:44:07.722Z,979.62
2024-02-09T04:45:07.729Z,979.62
2024-02-09T04:46:07.929Z,979.64
2024-02-09T04:47:07.771Z,979.64
2024-02-09T04:48:07.777Z,979.67
2024-02-09T04:49:07.935Z,979.63
2024-02-09T04:50:07.784Z,979.60
2024-02-09T04:51:07.764Z,979.56
2024-02-09T04:52:07.769Z,979.56
2024-02-09T04:53:07.624Z,979.54
2024-02-09T04:54:07.602Z,979.55
2024-02-09T04:55:07.798Z,979.52
2024-02-09T04:56:07.662Z,979.53
2024-02-09T04:57:07.577Z,979.50
2024-02-09T04:58:07.627Z,979.45
2024-02-09T04:59:07.566Z,979.43
2024-02-09T05:00:07.617Z,979.42
2024-02-09T05:01:07.737Z,979.43
2024-02-09T05:02:07.637Z,979.41
2024-02-09T05:03:07.539Z,979.42
2024-02-09T05:04:07.627Z,979.36
2024-02-09T05:05:07.635Z,979.38
2024-02-09T05:06:07.549Z,979.39
2024-02-09T05:07:07.524Z,979.37
2024-02-09T05:08:07.601Z,979.43
2024-02-09T05:09:07.456Z,979.37
2024-02-09T05:10:07.558Z,979.36
2024-02-09T05:11:07.563Z,979.39
2024-02-09T05:12:07.515Z,979.35
2024-02-09T05:13:07.497Z,979.34
2024-02-09T05:14:07.567Z,979.31
2024-02-09T05:15:07.447Z,979.31
2024-02-09T05:16:07.392Z,979.34
2024-02-09T05:17:07.371Z,979.33
2024-02-09T05:18:07.444Z,979.27
2024-02-09T05:19:07.471Z,979.19
2024-02-09T05:20:07.416Z,979.24
2024-02-09T05:21:07.353Z,979.32
2024-02-09T05:22:07.451Z,979.26
2024-02-09T05:23:07.314Z,979.26
2024-02-09T05:24:07.314Z,979.21
2024-02-09T05:25:07.330Z,979.21
2024-02-09T05:26:07.337Z,979.20
2024-02-09T05:27:07.275Z,979.22
2024-02-09T05:28:07.324Z,979.21
2024-02-09T05:29:07.242Z,979.25
2024-02-09T05:30:07.278Z,979.21
2024-02-09T05:31:07.240Z,979.17
2024-02-09T05:32:07.258Z,979.17
2024-02-09T05:33:07.225Z,979.22
2024-02-09T05:34:07.329Z,979.20
2024-02-09T05:35:07.296Z,979.18
2024-02-09T05:36:07.162Z,979.18
2024-02-09T05:37:07.263Z,979.17
2024-02-09T05:38:07.172Z,979.17
2024-02-09T05:39:07.141Z,979.18
2024-02-09T05:40:07.174Z,979.16
2024-02-09T05:41:07.104Z,979.15
2024-02-09T05:42:07.167Z,979.17
2024-02-09T05:43:07.122Z,979.11
2024-02-09T05:44:07.081Z,979.17
2024-02-09T05:45:07.177Z,979.16
2024-02-09T05:46:07.077Z,979.21
2024-02-09T05:47:07.093Z,979.17
2024-02-09T05:48:07.151Z,979.20
2024-02-09T05:49:07.081Z,979.18
2024-02-09T05:50:07.094Z,979.20
2024-02-09T05:51:07.011Z,979.22
2024-02-09T05:52:07.067Z,979.22
2024-02-09T05:53:06.973Z,979.21
2024-02-09T05:54:06.999Z,979.23
2024-02-09T05:55:07.008Z,979.22
2024-02-09T05:56:06.940Z,979.25
2024-02-09T05:57:07.002Z,979.26
2024-02-09T05:58:06.962Z,979.26
2024-02-09T05:59:08.215Z,979.18
2024-02-09T06:00:06.914Z,979.24
2024-02-09T06:01:06.948Z,979.27
2024-02-09T06:02:07.092Z,979.21
2024-02-09T06:03:06.859Z,979.24
2024-02-09T06:04:06.956Z,979.15
2024-02-09T06:05:06.929Z,979.13
2024-02-09T06:06:06.924Z,979.20
2024-02-09T06:07:06.902Z,979.16
2024-02-09T06:08:06.809Z,979.13
2024-02-09T06:09:06.799Z,979.13
2024-02-09T06:10:06.820Z,979.13
2024-02-09T06:11:06.777Z,979.16
2024-02-09T06:12:06.862Z,979.09
2024-02-09T06:13:06.832Z,979.10
2024-02-09T06:14:06.774Z,979.05
2024-02-09T06:15:06.748Z,979.08
2024-02-09T06:16:06.767Z,979.07
2024-02-09T06:17:06.751Z,979.07
2024-02-09T06:18:06.836Z,979.07
2024-02-09T06:19:06.762Z,979.03
2024-02-09T06:20:06.754Z,979.05
2024-02-09T06:21:06.708Z,979.03
2024-02-09T06:22:06.963Z,979.05
2024-02-09T06:23:06.653Z,979.09
2024-02-09T06:24:06.795Z,979.05
2024-02-09T06:25:06.812Z,979.10
2024-02-09T06:26:06.619Z,979.05
2024-02-09T06:27:06.618Z,979.11
2024-02-09T06:28:06.627Z,979.05
2024-02-09T06:29:06.585Z,979.06
2024-02-09T06:30:06.598Z,979.09
2024-02-09T06:31:06.605Z,979.06
2024-02-09T06:32:06.648Z,979.07
2024-02-09T06:33:06.601Z,979.01
2024-02-09T06:34:06.690Z,978.99
2024-02-09T06:35:06.556Z,979.00
2024-02-09T06:36:06.555Z,979.00
2024-02-09T06:37:06.885Z,979.03
2024-02-09T06:38:06.595Z,979.06
2024-02-09T06:39:06.558Z,979.05
2024-02-09T06:40:06.614Z,979.06
2024-02-09T06:41:06.494Z,979.08
2024-02-09T06:42:06.622Z,979.08
2024-02-09T06:43:06.486Z,979.07
2024-02-09T06:44:06.462Z,979.03
2024-02-09T06:45:06.433Z,979.00
2024-02-09T06:46:06.481Z,979.03
2024-02-09T06:47:06.422Z,979.04
2024-02-09T06:48:06.501Z,979.04
2024-02-09T06:49:06.659Z,979.03
2024-02-09T06:50:06.415Z,979.11
2024-02-09T06:51:06.674Z,979.07
2024-02-09T06:52:06.532Z,979.06
2024-02-09T06:53:06.335Z,979.11
2024-02-09T06:54:06.324Z,979.07
2024-02-09T06:55:06.571Z,979.07
2024-02-09T06:56:06.320Z,979.08
2024-02-09T06:57:06.454Z,979.04
2024-02-09T06:58:06.348Z,979.10
2024-02-09T06:59:06.658Z,979.04
2024-02-09T07:00:06.350Z,979.06
2024-02-09T07:01:06.315Z,979.09
2024-02-09T07:02:06.608Z,979.10
2024-02-09T07:03:06.424Z,979.03
2024-02-09T07:04:06.273Z,978.98
2024-02-09T07:05:06.361Z,979.02
2024-02-09T07:06:06.252Z,978.94
2024-02-09T07:07:06.294Z,979.00
2024-02-09T07:08:06.221Z,979.05
2024-02-09T07:09:06.238Z,978.97
2024-02-09T07:10:06.331Z,979.05
2024-02-09T07:11:06.137Z,979.05
2024-02-09T07:12:06.321Z,979.10
2024-02-09T07:13:06.163Z,979.10
2024-02-09T07:14:06.108Z,979.08
2024-02-09T07:15:06.153Z,979.12
2024-02-09T07:16:06.101Z,979.08
2024-02-09T07:17:06.097Z,979.03
2024-02-09T07:18:06.177Z,979.04
2024-02-09T07:19:06.239Z,979.03
2024-02-09T07:20:06.161Z,979.02
2024-02-09T07:21:06.018Z,978.99
2024-02-09T07:22:06.108Z,978.99
2024-02-09T07:23:06.037Z,979.01
2024-02-09T07:24:08.247Z,978.97
2024-02-09T07:25:06.088Z,978.99
2024-02-09T07:26:06.071Z,978.99
2024-02-09T07:27:05.970Z,978.99
2024-02-09T07:28:06.067Z,979.01
2024-02-09T07:29:05.961Z,978.99
2024-02-09T07:30:05.941Z,979.02
2024-02-09T07:31:05.939Z,979.05
2024-02-09T07:32:06.024Z,979.03
2024-02-09T07:33:06.100Z,979.03
2024-02-09T07:34:06.074Z,978.99
2024-02-09T07:35:05.973Z,979.03
2024-02-09T07:36:05.874Z,979.07
2024-02-09T07:37:05.952Z,979.06
2024-02-09T07:38:05.857Z,979.07
2024-02-09T07:39:05.853Z,979.03
2024-02-09T07:40:05.909Z,979.10
2024-02-09T07:41:05.803Z,979.13
2024-02-09T07:42:05.995Z,979.11
2024-02-09T07:43:05.849Z,979.15
2024-02-09T07:44:06.015Z,979.10
2024-02-09T07:45:06.193Z,979.08
2024-02-09T07:46:05.932Z,979.08
2024-02-09T07:47:05.772Z,979.07
2024-02-09T07:48:05.802Z,979.08
2024-02-09T07:49:05.852Z,979.07
2024-02-09T07:50:05.784Z,979.06
2024-02-09T07:51:05.752Z,979.02
2024-02-09T07:52:05.776Z,979.08
2024-02-09T07:53:05.749Z,979.08
2024-02-09T07:54:05.817Z,979.10
2024-02-09T07:55:06.912Z,979.11
2024-02-09T07:56:05.805Z,979.03
2024-02-09T07:57:05.644Z,979.06
2024-02-09T07:58:05.705Z,979.03
2024-02-09T07:59:05.753Z,979.01
2024-02-09T08:00:05.682Z,978.99
2024-02-09T08:01:05.706Z,979.01
2024-02-09T08:02:05.684Z,979.05
2024-02-09T08:03:05.576Z,979.04
2024-02-09T08:04:05.726Z,978.98
2024-02-09T08:05:05.589Z,979.04
2024-02-09T08:06:05.582Z,979.07
2024-02-09T08:07:05.577Z,979.09
2024-02-09T08:08:05.528Z,979.06
2024-02-09T08:09:05.640Z,979.10
2024-02-09T08:10:05.689Z,979.08
2024-02-09T08:11:05.484Z,979.08
2024-02-09T08:12:05.498Z,979.07
2024-02-09T08:13:05.569Z,979.06
2024-02-09T08:14:05.534Z,979.13
2024-02-09T08:15:05.453Z,979.14
2024-02-09T08:16:05.478Z,979.14
2024-02-09T08:17:05.457Z,979.10
2024-02-09T08:18:05.474Z,979.16
2024-02-09T08:19:05.508Z,979.16
2024-02-09T08:20:05.518Z,979.26
2024-02-09T08:21:05.378Z,979.20
2024-02-09T08:22:05.398Z,979.21
2024-02-09T08:23:05.372Z,979.22
2024-02-09T08:24:07.281Z,979.26
2024-02-09T08:25:05.425Z,979.23
2024-02-09T08:26:05.424Z,979.29
2024-02-09T08:27:05.347Z,979.26
2024-02-09T08:28:05.385Z,979.25
2024-02-09T08:29:05.344Z,979.27
2024-02-09T08:30:05.320Z,979.31
2024-02-09T08:31:05.283Z,979.26
2024-02-09T08:32:05.299Z,979.26
2024-02-09T08:33:05.355Z,979.27
2024-02-09T08:34:05.389Z,979.25
2024-02-09T08:35:05.325Z,979.16
2024-02-09T08:36:05.300Z,979.24
2024-02-09T08:37:05.328Z,979.24
2024-02-09T08:38:05.206Z,979.20
2024-02-09T08:39:05.195Z,979.21
2024-02-09T08:40:05.279Z,979.24
2024-02-09T08:41:05.250Z,979.23
2024-02-09T08:42:05.204Z,979.21
2024-02-09T08:43:05.269Z,979.22
2024-02-09T08:44:05.158Z,979.27
2024-02-09T08:45:05.119Z,979.20
2024-02-09T08:46:05.166Z,979.20
2024-02-09T08:47:05.332Z,979.23
2024-02-09T08:48:05.241Z,979.24
2024-02-09T08:49:05.199Z,979.30
2024-02-09T08:50:05.109Z,979.30
2024-02-09T08:51:05.086Z,979.26
2024-02-09T08:52:05.111Z,979.24
2024-02-09T08:53:05.047Z,979.27
2024-02-09T08:54:05.069Z,979.19
2024-02-09T08:55:05.161Z,979.26
2024-02-09T08:56:05.131Z,979.23
2024-02-09T08:57:05.005Z,979.25
2024-02-09T08:58:05.051Z,979.25
2024-02-09T08:59:06.833Z,979.25
2024-02-09T09:00:04.975Z,979.22
2024-02-09T09:01:05.989Z,979.24
2024-02-09T09:02:05.034Z,979.24
2024-02-09T09:03:05.061Z,979.22
2024-02-09T09:04:04.953Z,979.17
2024-02-09T09:05:05.620Z,979.16
2024-02-09T09:06:05.201Z,979.14
2024-02-09T09:07:04.976Z,979.16
2024-02-09T09:08:04.901Z,979.20
2024-02-09T09:09:04.914Z,979.14
2024-02-09T09:10:05.126Z,979.16
2024-02-09T09:11:04.922Z,979.11
2024-02-09T09:12:06.561Z,979.13
2024-02-09T09:13:04.850Z,979.11
2024-02-09T09:14:04.821Z,979.07
2024-02-09T09:15:04.814Z,979.09
2024-02-09T09:16:04.908Z,979.10
2024-02-09T09:17:12.919Z,979.13
2024-02-09T09:18:05.802Z,979.13
2024-02-09T09:19:04.895Z,979.13
2024-02-09T09:20:04.921Z,979.11
2024-02-09T09:21:04.762Z,979.10
2024-02-09T09:22:04.796Z,979.06
2024-02-09T09:23:04.729Z,979.09
2024-02-09T09:24:04.809Z,979.09
2024-02-09T09:25:04.736Z,979.04
2024-02-09T09:26:09.825Z,979.12
2024-02-09T09:27:05.686Z,979.06
2024-02-09T09:28:04.742Z,979.05
2024-02-09T09:29:04.661Z,979.02
2024-02-09T09:30:04.644Z,978.96
2024-02-09T09:31:04.664Z,979.06
2024-02-09T09:32:04.961Z,979.08
2024-02-09T09:33:04.658Z,979.08
2024-02-09T09:34:04.661Z,979.00
2024-02-09T09:35:04.672Z,979.01
2024-02-09T09:36:04.704Z,979.03
2024-02-09T09:37:04.686Z,979.07
2024-02-09T09:38:04.563Z,979.01
2024-02-09T09:39:04.710Z,979.06
2024-02-09T09:40:04.617Z,979.03
2024-02-09T09:41:04.611Z,978.99
2024-02-09T09:42:04.580Z,978.97
2024-02-09T09:43:04.640Z,979.04
2024-02-09T09:44:04.503Z,979.03
2024-02-09T09:45:04.526Z,979.04
2024-02-09T09:46:04.501Z,979.03
2024-02-09T09:47:04.515Z,979.09
2024-02-09T09:48:04.541Z,979.03
2024-02-09T09:49:04.557Z,979.07
2024-02-09T09:50:04.585Z,979.01
2024-02-09T09:51:04.411Z,979.01
2024-02-09T09:52:04.432Z,979.03
2024-02-09T09:53:04.494Z,979.00
2024-02-09T09:54:04.400Z,979.05
2024-02-09T09:55:04.393Z,979.07
2024-02-09T09:56:04.382Z,979.05
2024-02-09T09:57:04.366Z,979.04
2024-02-09T09:58:04.425Z,979.10
2024-02-09T09:59:04.427Z,978.97
2024-02-09T10:00:04.350Z,979.05
2024-02-09T10:01:04.416Z,979.05
2024-02-09T10:02:04.401Z,979.07
2024-02-09T10:03:04.307Z,979.05
2024-02-09T10:04:04.371Z,979.08
2024-02-09T10:05:04.513Z,979.05
2024-02-09T10:06:04.525Z,979.07
2024-02-09T10:07:04.305Z,979.10
2024-02-09T10:08:04.337Z,979.09
2024-02-09T10:09:04.233Z,979.11
2024-02-09T10:10:04.289Z,979.14
2024-02-09T10:11:04.296Z,979.13
2024-02-09T10:12:04.283Z,979.15
2024-02-09T10:13:04.245Z,979.16
2024-02-09T10:14:04.194Z,979.17
2024-02-09T10:15:04.179Z,979.17
2024-02-09T10:16:04.191Z,979.14
2024-02-09T10:17:04.155Z,979.12
2024-02-09T10:18:04.291Z,979.18
2024-02-09T10:19:04.301Z,979.11
2024-02-09T10:20:04.164Z,979.15
2024-02-09T10:21:04.108Z,979.11
2024-02-09T10:22:13.191Z,979.18
2024-02-09T10:23:05.191Z,979.13
2024-02-09T10:24:04.184Z,979.15
2024-02-09T10:25:04.269Z,979.11
2024-02-09T10:26:04.062Z,979.09
2024-02-09T10:27:04.048Z,979.20
2024-02-09T10:28:04.098Z,979.18
2024-02-09T10:29:04.660Z,979.16
2024-02-09T10:30:04.042Z,979.12
2024-02-09T10:31:04.069Z,979.06
2024-02-09T10:32:04.015Z,979.13
2024-02-09T10:33:04.052Z,979.13
2024-02-09T10:34:04.160Z,979.18
2024-02-09T10:35:04.330Z,979.11
2024-02-09T10:36:04.084Z,979.13
2024-02-09T10:37:05.870Z,979.16
2024-02-09T10:38:04.008Z,979.17
2024-02-09T10:39:03.964Z,979.12
2024-02-09T10:40:03.960Z,979.13
2024-02-09T10:41:03.907Z,979.12
2024-02-09T10:42:03.906Z,979.10
2024-02-09T10:43:03.997Z,979.09
2024-02-09T10:44:03.866Z,979.07
2024-02-09T10:45:10.084Z,979.10
2024-02-09T10:46:04.861Z,979.07
2024-02-09T10:47:03.827Z,979.00
2024-02-09T10:48:03.838Z,979.08
2024-02-09T10:49:03.931Z,979.12
2024-02-09T10:50:04.137Z,979.11
2024-02-09T10:51:03.809Z,979.11
2024-02-09T10:52:03.806Z,979.12
2024-02-09T10:53:03.759Z,979.11
2024-02-09T10:54:03.747Z,979.15
2024-02-09T10:55:03.753Z,979.11
2024-02-09T10:56:03.846Z,979.08
2024-02-09T10:57:03.733Z,979.14
2024-02-09T10:58:03.742Z,979.14
2024-02-09T10:59:03.740Z,979.13
2024-02-09T11:00:03.764Z,979.14
2024-02-09T11:01:03.830Z,979.13
2024-02-09T11:02:03.882Z,979.14
2024-02-09T11:03:03.655Z,979.17
2024-02-09T11:04:03.797Z,979.11
2024-02-09T11:05:03.824Z,979.12
2024-02-09T11:06:04.323Z,979.15
2024-02-09T11:07:03.924Z,979.11
2024-02-09T11:08:03.688Z,979.12
2024-02-09T11:09:03.595Z,979.17
2024-02-09T11:10:03.685Z,979.14
2024-02-09T11:11:03.663Z,979.16
2024-02-09T11:12:03.558Z,979.10
2024-02-09T11:13:03.605Z,979.13
2024-02-09T11:14:03.618Z,979.12
2024-02-09T11:15:03.519Z,979.15
2024-02-09T11:16:03.696Z,979.16
2024-02-09T11:17:03.556Z,979.17
2024-02-09T11:18:03.579Z,979.20
2024-02-09T11:19:03.558Z,979.15
2024-02-09T11:20:03.490Z,979.21
2024-02-09T11:21:03.494Z,979.23
2024-02-09T11:22:03.563Z,979.25
2024-02-09T11:23:03.493Z,979.21
2024-02-09T11:24:03.456Z,979.25
2024-02-09T11:25:03.768Z,979.26
2024-02-09T11:26:03.426Z,979.25
2024-02-09T11:27:03.402Z,979.26
2024-02-09T11:28:03.463Z,979.30
2024-02-09T11:29:03.421Z,979.21
2024-02-09T11:30:03.449Z,979.18
2024-02-09T11:31:03.450Z,979.26
2024-02-09T11:32:03.428Z,979.24
2024-02-09T11:33:03.399Z,979.24
2024-02-09T11:34:03.412Z,979.18
2024-02-09T11:35:03.478Z,979.22
2024-02-09T11:36:03.309Z,979.21
2024-02-09T11:37:03.784Z,979.19
2024-02-09T11:38:03.281Z,979.14
2024-02-09T11:39:03.319Z,979.18
2024-02-09T11:40:03.342Z,979.16
2024-02-09T11:41:03.246Z,979.21
2024-02-09T11:42:03.298Z,979.18
2024-02-09T11:43:03.251Z,979.25
2024-02-09T11:44:03.230Z,979.15
2024-02-09T11:45:03.386Z,979.24
2024-02-09T11:46:03.264Z,979.27
2024-02-09T11:47:03.209Z,979.27
2024-02-09T11:48:03.301Z,979.25
2024-02-09T11:49:03.304Z,979.24
2024-02-09T11:50:03.283Z,979.27
2024-02-09T11:51:03.141Z,979.28
2024-02-09T11:52:03.178Z,979.28
2024-02-09T11:53:10.780Z,979.19
2024-02-09T11:54:04.108Z,979.25
2024-02-09T11:55:03.304Z,979.23
2024-02-09T11:56:03.089Z,979.25
2024-02-09T11:57:06.069Z,979.27
2024-02-09T11:58:04.107Z,979.32
2024-02-09T11:59:06.845Z,979.21
2024-02-09T12:00:03.028Z,979.18
2024-02-09T12:01:03.128Z,979.21
2024-02-09T12:02:03.084Z,979.27
2024-02-09T12:03:03.009Z,979.25
2024-02-09T12:04:03.778Z,979.26
2024-02-09T12:05:03.206Z,979.27
2024-02-09T12:06:02.985Z,979.24
2024-02-09T12:07:03.384Z,979.28
2024-02-09T12:08:03.064Z,979.27
2024-02-09T12:09:02.941Z,979.32
2024-02-09T12:10:03.153Z,979.38
2024-02-09T12:11:02.922Z,979.35
2024-02-09T12:12:03.001Z,979.26
2024-02-09T12:13:02.945Z,979.28
2024-02-09T12:14:02.904Z,979.28
2024-02-09T12:15:02.875Z,979.35
2024-02-09T12:16:02.912Z,979.24
2024-02-09T12:17:02.860Z,979.24
2024-02-09T12:18:03.318Z,979.29
2024-02-09T12:19:03.033Z,979.26
2024-02-09T12:20:05.982Z,979.22
2024-02-09T12:21:02.821Z,979.24
2024-02-09T12:22:02.878Z,979.30
2024-02-09T12:23:02.799Z,979.28
2024-02-09T12:24:02.852Z,979.26
2024-02-09T12:25:02.939Z,979.25
2024-02-09T12:26:02.762Z,979.27
2024-02-09T12:27:02.752Z,979.26
2024-02-09T12:28:02.796Z,979.32
2024-02-09T12:29:02.757Z,979.29
2024-02-09T12:30:02.796Z,979.30